Time;durP1;ratioP1;P1;durP2;ratioP2;P2;SDS_P1;SDS_P2;PMS_P1;PMS_P2;Temp;Humidity;BMP_temperature;BMP_pressure;BME280_temperature;BME280_humidity;BME280_pressure;Samples;Min_cycle;Max_cycle;Signal;HPM_P1;HPM_P2
2021/11/05 00:02:14;;;;;;;14.85;3.35;;;20.80;49.70;;;;;;5029966;28;20301;-50
2021/11/05 00:04:47;;;;;;;35.72;8.00;;;20.90;49.60;;;;;;5031302;28;20232;-51
2021/11/05 00:07:18;;;;;;;100.88;19.60;;;21.00;49.60;;;;;;5029604;28;20199;-49
2021/11/05 00:09:48;;;;;;;137.52;23.42;;;21.00;49.60;;;;;;5024603;28;20235;-54
2021/11/05 00:12:19;;;;;;;140.45;24.92;;;21.10;49.70;;;;;;5026336;28;20259;-43
2021/11/05 00:14:49;;;;;;;130.05;23.13;;;21.10;49.60;;;;;;5029226;28;20702;-52
2021/11/05 00:17:22;;;;;;;85.85;18.10;;;21.10;49.60;;;;;;5029312;28;20220;-50
2021/11/05 00:19:52;;;;;;;74.03;14.00;;;21.20;49.60;;;;;;5028512;28;20774;-50
2021/11/05 00:22:23;;;;;;;53.13;12.02;;;21.20;49.40;;;;;;5028170;28;20319;-48
2021/11/05 00:24:53;;;;;;;53.50;10.57;;;21.30;49.40;;;;;;5028264;28;20225;-50
2021/11/05 00:27:24;;;;;;;38.58;9.00;;;21.30;49.30;;;;;;5028305;28;20247;-48
2021/11/05 00:29:54;;;;;;;34.47;8.23;;;21.30;49.20;;;;;;5030175;28;20232;-43
2021/11/05 00:32:26;;;;;;;39.25;8.57;;;21.40;49.10;;;;;;5028776;28;20310;-44
2021/11/05 00:34:57;;;;;;;26.98;6.95;;;21.40;49.10;;;;;;5028761;28;20631;-42
2021/11/05 00:37:27;;;;;;;25.85;6.90;;;21.40;49.00;;;;;;5029080;28;20727;-45
2021/11/05 00:39:58;;;;;;;19.20;6.38;;;21.40;48.90;;;;;;5028802;28;20258;-50
2021/11/05 00:42:28;;;;;;;22.67;6.38;;;21.40;48.90;;;;;;5025197;28;20795;-46
2021/11/05 00:44:59;;;;;;;21.23;5.82;;;21.50;48.80;;;;;;5018100;28;20284;-47
2021/11/05 00:47:31;;;;;;;18.98;5.18;;;21.50;48.80;;;;;;5029279;28;20287;-50
2021/11/05 00:50:02;;;;;;;17.40;4.88;;;21.50;48.80;;;;;;5029163;28;20254;-45
2021/11/05 00:52:32;;;;;;;17.08;5.05;;;21.50;48.70;;;;;;5029084;28;20311;-41
2021/11/05 00:55:03;;;;;;;17.33;4.30;;;21.50;48.70;;;;;;5028937;28;20231;-43
2021/11/05 00:57:33;;;;;;;17.08;3.88;;;21.50;48.60;;;;;;5021587;28;20220;-46
2021/11/05 01:00:05;;;;;;;15.88;4.07;;;21.50;48.60;;;;;;5023660;28;20310;-45
2021/11/05 01:02:37;;;;;;;14.52;4.38;;;21.50;48.60;;;;;;5028048;28;20244;-48
2021/11/05 01:05:08;;;;;;;13.07;3.90;;;21.50;48.50;;;;;;5028703;28;20232;-46
2021/11/05 01:07:39;;;;;;;9.70;3.05;;;21.50;48.50;;;;;;5027956;28;20242;-48
2021/11/05 01:10:10;;;;;;;12.05;3.30;;;21.50;48.50;;;;;;5028766;28;20647;-45
2021/11/05 01:12:41;;;;;;;12.73;3.83;;;21.50;48.40;;;;;;5028489;28;20298;-44
2021/11/05 01:15:13;;;;;;;11.50;3.05;;;21.50;48.50;;;;;;5028649;28;20291;-47
2021/11/05 01:17:46;;;;;;;12.82;3.05;;;21.50;48.50;;;;;;5027952;28;20295;-42
2021/11/05 01:20:19;;;;;;;8.60;2.42;;;21.60;48.50;;;;;;5027526;28;20263;-53
2021/11/05 01:22:49;;;;;;;10.13;3.28;;;21.50;48.50;;;;;;5028264;28;20255;-49
2021/11/05 01:25:20;;;;;;;8.57;2.60;;;21.60;48.60;;;;;;5028124;28;20282;-51
2021/11/05 01:27:52;;;;;;;6.78;2.13;;;21.50;48.50;;;;;;5029365;28;20283;-45
2021/11/05 01:30:23;;;;;;;8.20;2.60;;;21.60;48.50;;;;;;5029077;28;20227;-57
2021/11/05 01:32:55;;;;;;;8.98;2.67;;;21.60;48.50;;;;;;5026807;28;20307;-41
2021/11/05 01:35:26;;;;;;;8.10;2.70;;;21.60;48.50;;;;;;5019490;28;20649;-48
2021/11/05 01:37:56;;;;;;;6.38;2.35;;;21.60;48.40;;;;;;5020881;28;20283;-51
2021/11/05 01:40:27;;;;;;;6.60;2.50;;;21.60;48.50;;;;;;5026185;28;20318;-42
2021/11/05 01:43:00;;;;;;;10.13;2.70;;;21.60;48.40;;;;;;5024804;28;20310;-49
2021/11/05 01:45:32;;;;;;;7.90;2.55;;;21.60;48.40;;;;;;5028239;28;20231;-45
2021/11/05 01:48:04;;;;;;;5.55;2.30;;;21.60;48.40;;;;;;5028559;28;20703;-52
2021/11/05 01:50:35;;;;;;;8.93;2.30;;;21.60;48.40;;;;;;5028089;28;20196;-48
2021/11/05 01:53:06;;;;;;;7.28;2.30;;;21.60;48.30;;;;;;5027701;28;20295;-49
2021/11/05 01:55:37;;;;;;;7.30;2.10;;;21.70;48.40;;;;;;5028721;28;20258;-54
2021/11/05 01:58:07;;;;;;;8.20;2.35;;;21.70;48.40;;;;;;5027068;28;20227;-57
2021/11/05 02:00:38;;;;;;;6.97;2.00;;;21.70;48.40;;;;;;5029875;28;20268;-53
2021/11/05 02:03:10;;;;;;;6.38;2.00;;;21.70;48.40;;;;;;5027529;28;20252;-53
2021/11/05 02:05:41;;;;;;;8.55;2.58;;;21.70;48.40;;;;;;5027894;28;20286;-48
2021/11/05 02:08:13;;;;;;;7.28;2.17;;;21.70;48.40;;;;;;5027682;28;20231;-47
2021/11/05 02:10:46;;;;;;;6.72;2.20;;;21.70;48.40;;;;;;5027796;28;20291;-50
2021/11/05 02:13:17;;;;;;;5.55;1.88;;;21.70;48.40;;;;;;5027392;28;20244;-42
2021/11/05 02:15:47;;;;;;;5.18;2.00;;;21.70;48.30;;;;;;5026929;28;20282;-43
2021/11/05 02:18:21;;;;;;;5.70;2.13;;;21.70;48.20;;;;;;5027471;28;20226;-47
2021/11/05 02:20:56;;;;;;;6.80;1.83;;;21.80;48.20;;;;;;5014380;28;20315;-43
2021/11/05 02:23:28;;;;;;;8.35;2.10;;;21.80;48.00;;;;;;5028830;28;20262;-41
2021/11/05 02:25:59;;;;;;;8.82;2.72;;;21.80;47.90;;;;;;5028908;28;20243;-42
2021/11/05 02:28:29;;;;;;;7.28;2.28;;;21.80;47.70;;;;;;5027490;28;20239;-42
2021/11/05 02:31:00;;;;;;;12.73;3.63;;;21.90;47.70;;;;;;5023198;28;20292;-52
2021/11/05 02:33:30;;;;;;;13.32;3.53;;;21.90;47.60;;;;;;5026725;28;20284;-47
2021/11/05 02:36:01;;;;;;;8.15;2.80;;;21.90;47.60;;;;;;5027055;28;20239;-44
2021/11/05 02:38:33;;;;;;;8.10;2.38;;;21.90;47.60;;;;;;5026858;28;20284;-46
2021/11/05 02:41:04;;;;;;;11.38;3.00;;;22.00;47.60;;;;;;5028029;28;20235;-52
2021/11/05 02:43:34;;;;;;;7.30;2.50;;;22.00;47.60;;;;;;5029790;28;20255;-54
2021/11/05 02:46:05;;;;;;;10.85;2.97;;;22.00;47.60;;;;;;5032919;28;20299;-49
2021/11/05 02:48:35;;;;;;;17.98;4.13;;;22.00;47.50;;;;;;5031718;28;20232;-54
2021/11/05 02:51:06;;;;;;;10.25;2.97;;;22.00;47.50;;;;;;5030745;28;20290;-48
2021/11/05 02:53:38;;;;;;;8.05;2.60;;;22.00;47.40;;;;;;5028791;28;20247;-48
2021/11/05 02:56:09;;;;;;;9.18;2.50;;;22.00;47.40;;;;;;5030963;28;20224;-55
2021/11/05 02:58:40;;;;;;;9.98;3.17;;;22.00;47.40;;;;;;5030206;28;20235;-43
2021/11/05 03:01:10;;;;;;;7.35;2.42;;;22.00;47.40;;;;;;5030660;28;20287;-51
2021/11/05 03:03:41;;;;;;;9.95;2.80;;;22.00;47.40;;;;;;5031170;28;20299;-41
2021/11/05 03:06:11;;;;;;;8.30;2.13;;;22.00;47.40;;;;;;5030988;28;20196;-42
2021/11/05 03:08:44;;;;;;;9.93;2.10;;;22.00;47.30;;;;;;5032096;28;20625;-45
2021/11/05 03:11:14;;;;;;;7.13;2.40;;;22.00;47.20;;;;;;5030782;28;20767;-49
2021/11/05 03:13:46;;;;;;;6.00;2.17;;;22.00;47.20;;;;;;5030182;28;20232;-44
2021/11/05 03:16:16;;;;;;;9.30;2.63;;;22.00;47.10;;;;;;5029756;28;20236;-45
2021/11/05 03:18:47;;;;;;;8.35;2.25;;;22.00;47.10;;;;;;5029754;28;20319;-42
2021/11/05 03:21:17;;;;;;;4.72;1.70;;;22.00;47.10;;;;;;5030275;28;20716;-47
2021/11/05 03:23:50;;;;;;;9.50;2.63;;;22.00;47.20;;;;;;5030003;28;20283;-43
2021/11/05 03:26:20;;;;;;;7.97;2.42;;;22.00;47.20;;;;;;5031434;28;20283;-42
2021/11/05 03:28:51;;;;;;;8.80;2.50;;;22.00;47.20;;;;;;5030171;28;20227;-43
2021/11/05 03:31:21;;;;;;;8.55;1.95;;;22.00;47.10;;;;;;5031170;28;20255;-41
2021/11/05 03:33:52;;;;;;;6.32;2.08;;;22.00;47.10;;;;;;5030111;28;20732;-41
2021/11/05 03:36:22;;;;;;;10.25;2.25;;;22.00;47.10;;;;;;5029465;28;20606;-47
2021/11/05 03:38:55;;;;;;;7.90;2.00;;;22.00;47.10;;;;;;5030815;28;20290;-48
2021/11/05 03:41:26;;;;;;;7.88;2.22;;;21.90;47.00;;;;;;5030917;28;20294;-42
2021/11/05 03:43:56;;;;;;;8.20;1.83;;;22.00;47.10;;;;;;5029746;28;20723;-41
2021/11/05 03:46:27;;;;;;;6.50;2.47;;;21.90;47.10;;;;;;5029387;28;20296;-45
2021/11/05 03:48:57;;;;;;;7.70;2.20;;;21.90;47.10;;;;;;5029987;28;20196;-42
2021/11/05 03:51:28;;;;;;;7.22;2.30;;;21.90;47.10;;;;;;5029094;28;20686;-41
2021/11/05 03:54:00;;;;;;;5.47;1.55;;;21.90;47.10;;;;;;5031488;28;20239;-41
2021/11/05 03:56:31;;;;;;;6.10;1.73;;;21.90;47.10;;;;;;5029558;28;20287;-51
2021/11/05 03:59:02;;;;;;;7.05;1.85;;;22.00;47.10;;;;;;5031165;28;20294;-46
2021/11/05 04:01:32;;;;;;;5.82;1.90;;;21.90;47.00;;;;;;5023569;28;20283;-48
2021/11/05 04:04:03;;;;;;;5.45;1.70;;;21.90;46.90;;;;;;5030357;28;20715;-47
2021/11/05 04:06:34;;;;;;;7.22;2.20;;;21.90;46.90;;;;;;5029097;28;20240;-45
2021/11/05 04:09:06;;;;;;;6.15;2.05;;;21.90;46.90;;;;;;5029265;28;20197;-46
2021/11/05 04:11:37;;;;;;;6.22;2.03;;;21.90;46.90;;;;;;5029643;28;20284;-44
2021/11/05 04:14:07;;;;;;;6.10;1.90;;;21.90;46.80;;;;;;5028697;28;20761;-45
2021/11/05 04:16:38;;;;;;;4.95;1.90;;;21.90;46.80;;;;;;5031263;28;20287;-44
2021/11/05 04:19:08;;;;;;;8.30;1.92;;;21.90;46.80;;;;;;5028763;28;20243;-42
2021/11/05 04:21:39;;;;;;;9.13;2.42;;;21.90;46.90;;;;;;5029626;28;20227;-44
2021/11/05 04:24:11;;;;;;;5.78;1.90;;;21.90;46.90;;;;;;5029072;28;20291;-51
2021/11/05 04:26:42;;;;;;;5.68;1.98;;;21.90;46.90;;;;;;5026976;28;20287;-42
2021/11/05 04:29:12;;;;;;;5.45;1.63;;;21.90;47.00;;;;;;5017916;28;20287;-42
2021/11/05 04:31:43;;;;;;;6.45;2.17;;;21.90;46.90;;;;;;5030553;28;20256;-48
2021/11/05 04:34:14;;;;;;;4.00;1.65;;;21.90;46.90;;;;;;5030914;28;20267;-43
2021/11/05 04:36:44;;;;;;;5.03;1.80;;;21.90;47.00;;;;;;5028931;28;20279;-42
2021/11/05 04:39:17;;;;;;;7.68;2.08;;;21.90;47.00;;;;;;5029125;28;20279;-44
2021/11/05 04:41:48;;;;;;;4.78;1.65;;;21.90;46.90;;;;;;5028805;28;20235;-42
2021/11/05 04:44:18;;;;;;;6.72;1.92;;;21.90;46.90;;;;;;5029022;28;20235;-41
2021/11/05 04:46:49;;;;;;;5.97;1.70;;;21.90;46.80;;;;;;5028007;28;20295;-48
2021/11/05 04:49:22;;;;;;;5.57;2.10;;;21.90;46.70;;;;;;5028534;28;20243;-45
2021/11/05 04:51:53;;;;;;;3.67;1.80;;;21.90;46.70;;;;;;5025631;28;20212;-41
2021/11/05 04:54:25;;;;;;;4.43;2.00;;;21.90;46.70;;;;;;5028882;28;20291;-41
2021/11/05 04:56:56;;;;;;;5.85;1.67;;;21.90;46.70;;;;;;5028286;28;20615;-44
2021/11/05 04:59:26;;;;;;;5.32;1.98;;;21.90;46.70;;;;;;5028084;28;20276;-42
2021/11/05 05:01:57;;;;;;;6.22;1.92;;;21.90;46.60;;;;;;5029577;28;20311;-41
2021/11/05 05:04:27;;;;;;;4.97;2.03;;;21.90;46.70;;;;;;5028174;28;20208;-42
2021/11/05 05:06:58;;;;;;;5.35;1.65;;;21.90;46.80;;;;;;5028433;28;20243;-43
2021/11/05 05:09:30;;;;;;;5.80;2.13;;;21.90;46.80;;;;;;5028066;28;20823;-42
2021/11/05 05:12:00;;;;;;;5.10;2.00;;;21.80;46.70;;;;;;5028007;28;20236;-45
2021/11/05 05:14:31;;;;;;;5.72;1.85;;;21.80;46.70;;;;;;5027652;28;20287;-43
2021/11/05 05:17:01;;;;;;;4.68;1.83;;;21.80;46.70;;;;;;5027568;28;20683;-45
2021/11/05 05:19:32;;;;;;;7.72;2.08;;;21.80;46.70;;;;;;5028595;28;20231;-44
2021/11/05 05:22:02;;;;;;;4.97;1.80;;;21.80;46.80;;;;;;5018735;28;20299;-44
2021/11/05 05:24:34;;;;;;;4.88;1.90;;;21.80;46.70;;;;;;5030122;28;20651;-41
2021/11/05 05:27:05;;;;;;;5.82;2.05;;;21.80;46.80;;;;;;5028971;28;20235;-41
2021/11/05 05:29:36;;;;;;;6.13;1.77;;;21.80;46.80;;;;;;5029761;28;20853;-41
2021/11/05 05:32:07;;;;;;;6.85;2.00;;;21.80;46.80;;;;;;5028327;28;20726;-42
2021/11/05 05:34:38;;;;;;;6.05;2.03;;;21.80;46.80;;;;;;5028284;28;20258;-41
2021/11/05 05:37:09;;;;;;;6.30;1.88;;;21.70;46.80;;;;;;5027830;28;20232;-42
2021/11/05 05:39:41;;;;;;;5.60;1.65;;;21.70;46.90;;;;;;5028289;28;20287;-48
2021/11/05 05:42:12;;;;;;;4.30;1.73;;;21.70;46.90;;;;;;5014280;28;20248;-46
2021/11/05 05:44:42;;;;;;;6.35;1.80;;;21.70;46.90;;;;;;5028418;28;20232;-44
2021/11/05 05:47:14;;;;;;;4.93;1.80;;;21.70;46.90;;;;;;5028147;28;20287;-42
2021/11/05 05:49:44;;;;;;;6.10;1.92;;;21.60;46.90;;;;;;5027761;28;20238;-42
2021/11/05 05:52:15;;;;;;;5.20;2.20;;;21.60;46.90;;;;;;5027947;28;20226;-42
2021/11/05 05:54:47;;;;;;;4.85;1.70;;;21.60;47.00;;;;;;5027665;28;20287;-41
2021/11/05 05:57:18;;;;;;;5.88;1.88;;;21.60;47.00;;;;;;5028111;28;20295;-42
2021/11/05 05:59:48;;;;;;;5.47;2.13;;;21.60;47.00;;;;;;5027475;28;20231;-42
2021/11/05 06:02:19;;;;;;;5.60;2.03;;;21.60;47.00;;;;;;5027791;28;20307;-40
2021/11/05 06:04:49;;;;;;;8.23;2.25;;;21.50;46.90;;;;;;5028058;28;20620;-41
2021/11/05 06:07:20;;;;;;;6.55;2.10;;;21.50;47.00;;;;;;5029103;28;20239;-43
2021/11/05 06:09:52;;;;;;;5.75;1.80;;;21.50;47.00;;;;;;5028900;28;20379;-41
2021/11/05 06:12:23;;;;;;;5.20;1.75;;;21.50;47.00;;;;;;5027308;28;20687;-42
2021/11/05 06:14:53;;;;;;;5.78;2.03;;;21.50;47.00;;;;;;5027844;28;20243;-40
2021/11/05 06:17:24;;;;;;;6.07;2.03;;;21.50;47.00;;;;;;5027253;28;20774;-40
2021/11/05 06:19:54;;;;;;;5.57;1.80;;;21.40;47.00;;;;;;5031453;28;20236;-41
2021/11/05 06:22:25;;;;;;;6.10;1.75;;;21.40;47.10;;;;;;5030827;28;20255;-40
2021/11/05 06:24:59;;;;;;;7.88;1.98;;;21.40;47.10;;;;;;5031653;28;20633;-42
2021/11/05 06:27:30;;;;;;;5.65;2.08;;;21.40;47.10;;;;;;5021811;28;20203;-41
2021/11/05 06:30:00;;;;;;;9.23;2.63;;;21.40;47.20;;;;;;5032006;28;20270;-43
2021/11/05 06:32:31;;;;;;;9.05;2.50;;;21.40;46.90;;;;;;5032557;28;20730;-42
2021/11/05 06:35:01;;;;;;;8.05;2.20;;;21.30;46.70;;;;;;5032744;28;20644;-43
2021/11/05 06:37:32;;;;;;;7.53;2.17;;;21.30;47.00;;;;;;5031091;28;20748;-41
2021/11/05 06:40:04;;;;;;;5.95;2.15;;;21.30;47.40;;;;;;5030411;28;20277;-45
2021/11/05 06:42:35;;;;;;;6.00;1.90;;;21.20;47.60;;;;;;5030679;28;20299;-41
2021/11/05 06:45:05;;;;;;;6.88;2.25;;;21.20;47.60;;;;;;5030397;28;20644;-40
2021/11/05 06:47:36;;;;;;;8.05;2.30;;;21.20;47.60;;;;;;5024585;28;20228;-46
2021/11/05 06:50:09;;;;;;;5.45;1.80;;;21.20;47.60;;;;;;5031467;28;20821;-42
2021/11/05 06:52:40;;;;;;;5.70;2.03;;;21.20;47.60;;;;;;5032296;28;20224;-40
2021/11/05 06:55:14;;;;;;;6.68;1.95;;;21.20;47.60;;;;;;5031632;28;20287;-49
2021/11/05 06:57:45;;;;;;;5.60;2.03;;;21.10;47.60;;;;;;5021824;28;20243;-45
2021/11/05 07:00:18;;;;;;;4.88;2.00;;;21.10;47.60;;;;;;5027692;28;20235;-42
2021/11/05 07:02:48;;;;;;;6.53;2.00;;;21.10;47.60;;;;;;5030241;28;20299;-46
2021/11/05 07:05:19;;;;;;;6.47;2.20;;;21.10;47.60;;;;;;5031428;28;20230;-41
2021/11/05 07:07:50;;;;;;;4.63;1.70;;;21.10;47.60;;;;;;5030719;28;20591;-45
2021/11/05 07:10:22;;;;;;;5.25;1.85;;;21.10;47.60;;;;;;5031520;28;20254;-40
2021/11/05 07:12:52;;;;;;;5.72;1.90;;;21.10;47.70;;;;;;5014600;28;20252;-41
2021/11/05 07:15:23;;;;;;;8.20;2.28;;;21.00;48.20;;;;;;5032344;28;20287;-42
2021/11/05 07:17:54;;;;;;;7.03;2.00;;;21.00;47.60;;;;;;5017889;28;20228;-49
2021/11/05 07:20:24;;;;;;;5.10;2.00;;;21.00;47.70;;;;;;5029835;28;20306;-41
2021/11/05 07:22:55;;;;;;;5.07;1.92;;;21.00;47.80;;;;;;5031614;28;20307;-41
2021/11/05 07:25:28;;;;;;;5.32;1.73;;;20.90;47.70;;;;;;5030370;28;20231;-41
2021/11/05 07:27:58;;;;;;;6.22;2.13;;;20.90;47.70;;;;;;5030599;28;20238;-43
2021/11/05 07:30:30;;;;;;;6.93;2.15;;;20.90;47.80;;;;;;5029364;28;20246;-43
2021/11/05 07:33:00;;;;;;;5.47;1.95;;;20.90;47.80;;;;;;5032142;28;20230;-40
2021/11/05 07:35:31;;;;;;;4.72;1.73;;;20.90;47.90;;;;;;5014164;28;20284;-41
2021/11/05 07:38:02;;;;;;;5.63;2.47;;;20.90;47.90;;;;;;5031228;28;20269;-40
2021/11/05 07:40:34;;;;;;;5.00;1.58;;;20.80;47.90;;;;;;5032300;28;20306;-43
2021/11/05 07:43:05;;;;;;;5.60;2.00;;;20.80;47.80;;;;;;5029846;28;20256;-40
2021/11/05 07:45:35;;;;;;;4.95;1.85;;;20.80;47.90;;;;;;5030725;28;20232;-44
2021/11/05 07:48:07;;;;;;;4.95;1.63;;;20.80;47.90;;;;;;5023704;28;20232;-47
2021/11/05 07:50:38;;;;;;;4.72;1.80;;;20.80;47.90;;;;;;5029404;28;20196;-44
2021/11/05 07:53:08;;;;;;;7.18;2.00;;;20.80;47.90;;;;;;5019951;28;20223;-47
2021/11/05 07:55:40;;;;;;;6.53;2.35;;;20.80;48.00;;;;;;5030497;28;20283;-49
2021/11/05 07:58:11;;;;;;;4.95;1.50;;;20.80;48.00;;;;;;5019819;28;20716;-43
2021/11/05 08:00:41;;;;;;;6.20;1.85;;;20.80;48.00;;;;;;5031209;28;20307;-42
2021/11/05 08:03:12;;;;;;;4.72;1.95;;;20.70;48.10;;;;;;5032086;28;20644;-49
2021/11/05 08:05:43;;;;;;;5.25;1.50;;;20.70;48.10;;;;;;5029604;28;20238;-45
2021/11/05 08:08:14;;;;;;;5.05;1.60;;;20.70;48.10;;;;;;5026659;28;20283;-39
2021/11/05 08:10:46;;;;;;;4.30;1.73;;;20.70;48.10;;;;;;5028952;28;20258;-40
2021/11/05 08:13:18;;;;;;;4.93;1.58;;;20.60;48.10;;;;;;5029895;28;20921;-39
2021/11/05 08:15:48;;;;;;;5.35;1.70;;;20.60;48.10;;;;;;5026603;28;20193;-51
2021/11/05 08:18:19;;;;;;;7.72;1.83;;;20.60;48.20;;;;;;5029684;28;20919;-40
2021/11/05 08:20:49;;;;;;;6.05;1.95;;;20.60;48.20;;;;;;5013693;28;20259;-53
2021/11/05 08:23:20;;;;;;;5.53;2.20;;;20.60;48.20;;;;;;5031404;28;20327;-51
2021/11/05 08:25:52;;;;;;;4.93;1.85;;;20.60;48.20;;;;;;5030704;28;20744;-41
2021/11/05 08:28:23;;;;;;;4.70;2.03;;;20.50;48.20;;;;;;5029251;28;20279;-42
2021/11/05 08:30:54;;;;;;;4.70;1.70;;;20.50;48.20;;;;;;5029447;28;20287;-40
2021/11/05 08:33:25;;;;;;;5.43;2.22;;;20.60;48.30;;;;;;5028800;28;20255;-49
2021/11/05 08:35:56;;;;;;;3.65;1.70;;;20.50;48.30;;;;;;5020368;28;20283;-50
2021/11/05 08:38:26;;;;;;;3.88;1.67;;;20.50;48.30;;;;;;5028914;28;20285;-47
2021/11/05 08:40:59;;;;;;;4.15;1.73;;;20.50;48.30;;;;;;5028648;28;20239;-40
2021/11/05 08:43:33;;;;;;;3.88;1.70;;;20.50;48.30;;;;;;5012151;28;20307;-45
2021/11/05 08:46:05;;;;;;;7.90;2.13;;;20.50;48.30;;;;;;5029518;28;20675;-47
2021/11/05 08:48:36;;;;;;;6.07;2.20;;;20.40;48.30;;;;;;5027176;28;20228;-41
2021/11/05 08:51:10;;;;;;;3.17;1.55;;;20.40;48.40;;;;;;5028756;28;20246;-45
2021/11/05 08:53:41;;;;;;;4.47;1.60;;;20.40;48.40;;;;;;5028549;28;20254;-42
2021/11/05 08:56:14;;;;;;;4.57;1.85;;;20.40;48.40;;;;;;5028551;28;20199;-42
2021/11/05 08:58:47;;;;;;;3.33;1.33;;;20.40;48.40;;;;;;5021605;28;20291;-44
2021/11/05 09:01:17;;;;;;;3.45;1.52;;;20.40;48.40;;;;;;5028391;28;20251;-48
2021/11/05 09:03:48;;;;;;;5.18;1.85;;;20.40;48.40;;;;;;5029263;28;20200;-43
2021/11/05 09:06:18;;;;;;;4.50;1.40;;;20.40;48.50;;;;;;5029044;28;20284;-47
2021/11/05 09:08:51;;;;;;;4.30;1.75;;;20.30;48.40;;;;;;5029173;28;20235;-44
2021/11/05 09:11:23;;;;;;;4.22;1.70;;;20.30;48.40;;;;;;5030348;28;20238;-44
2021/11/05 09:13:53;;;;;;;3.65;1.58;;;20.30;48.50;;;;;;5028935;28;20287;-53
2021/11/05 09:16:24;;;;;;;4.13;1.40;;;20.30;48.50;;;;;;5028781;28;20228;-44
2021/11/05 09:18:55;;;;;;;4.50;1.70;;;20.30;48.50;;;;;;5028031;28;20196;-47
2021/11/05 09:21:28;;;;;;;4.43;1.55;;;20.30;48.60;;;;;;5029056;28;20661;-55
2021/11/05 09:23:59;;;;;;;3.50;1.55;;;20.30;48.60;;;;;;5027513;28;20287;-47
2021/11/05 09:26:31;;;;;;;4.75;1.70;;;20.20;48.50;;;;;;5028262;28;20280;-51
2021/11/05 09:29:02;;;;;;;3.88;1.63;;;20.30;48.60;;;;;;5027990;28;20235;-49
2021/11/05 09:31:32;;;;;;;3.55;1.52;;;20.20;48.60;;;;;;5028638;28;20291;-49
2021/11/05 09:34:03;;;;;;;4.93;1.90;;;20.30;48.60;;;;;;5026266;28;20232;-43
2021/11/05 09:36:33;;;;;;;4.53;1.40;;;20.20;48.60;;;;;;5028505;28;20291;-42
2021/11/05 09:39:04;;;;;;;4.00;1.67;;;20.20;48.60;;;;;;5028570;28;20232;-47
2021/11/05 09:41:37;;;;;;;3.67;1.60;;;20.20;48.70;;;;;;5028273;28;20626;-43
2021/11/05 09:44:07;;;;;;;3.00;1.48;;;20.20;48.70;;;;;;5027386;28;20657;-47
2021/11/05 09:46:38;;;;;;;3.78;1.70;;;20.20;48.70;;;;;;5028387;28;20296;-44
2021/11/05 09:49:09;;;;;;;4.32;1.42;;;20.10;48.60;;;;;;5023160;28;20200;-41
2021/11/05 09:51:40;;;;;;;4.00;1.38;;;20.10;48.70;;;;;;5028217;28;20319;-48
2021/11/05 09:54:11;;;;;;;3.03;1.52;;;20.10;48.70;;;;;;5027747;28;20238;-41
2021/11/05 09:56:44;;;;;;;4.13;1.63;;;20.10;48.70;;;;;;5024500;28;20731;-42
2021/11/05 09:59:14;;;;;;;3.65;1.63;;;20.10;48.70;;;;;;5027557;28;20236;-49
2021/11/05 10:01:46;;;;;;;3.17;1.27;;;20.10;48.70;;;;;;5027777;28;20315;-52
2021/11/05 10:04:17;;;;;;;4.85;1.50;;;20.10;48.70;;;;;;5027352;28;20282;-40
2021/11/05 10:07:02;;;;;;;3.28;1.42;;;20.10;48.70;;;;;;5028308;28;20204;-41
2021/11/05 10:09:38;;;;;;;3.22;1.58;;;20.10;48.70;;;;;;5027330;28;20239;-41
2021/11/05 10:12:17;;;;;;;2.40;1.45;;;20.10;48.80;;;;;;5028197;28;20545;-53
2021/11/05 10:14:48;;;;;;;4.28;1.77;;;20.10;48.80;;;;;;5027844;28;20283;-46
2021/11/05 10:17:21;;;;;;;4.60;1.52;;;20.10;48.80;;;;;;5027796;28;20239;-47
2021/11/05 10:19:57;;;;;;;2.85;1.33;;;20.00;48.80;;;;;;5026573;28;20215;-42
2021/11/05 10:22:43;;;;;;;4.40;1.60;;;20.00;48.80;;;;;;5027346;28;20307;-43
2021/11/05 10:25:23;;;;;;;4.07;1.50;;;20.00;48.80;;;;;;5028369;28;20199;-42
2021/11/05 10:28:06;;;;;;;3.40;1.60;;;20.00;48.80;;;;;;5029222;28;20207;-48
2021/11/05 10:30:40;;;;;;;3.17;1.77;;;19.90;48.70;;;;;;5029566;28;20198;-46
2021/11/05 10:33:11;;;;;;;3.45;1.45;;;20.00;48.80;;;;;;5028466;28;20257;-53
2021/11/05 10:35:42;;;;;;;4.20;1.60;;;19.90;48.70;;;;;;5027669;28;20247;-51
2021/11/05 10:38:15;;;;;;;3.08;1.38;;;19.90;48.80;;;;;;5029213;28;20227;-47
2021/11/05 10:40:48;;;;;;;4.70;1.75;;;19.90;48.80;;;;;;5027881;28;20236;-40
2021/11/05 10:43:32;;;;;;;2.28;1.30;;;19.90;48.80;;;;;;5027422;28;20220;-44
2021/11/05 10:46:02;;;;;;;3.38;1.55;;;19.90;48.80;;;;;;5027961;28;20235;-57
2021/11/05 10:48:37;;;;;;;3.83;1.45;;;19.90;48.80;;;;;;5024485;28;20283;-43
2021/11/05 10:51:08;;;;;;;4.35;1.60;;;19.90;48.80;;;;;;5012038;28;20228;-43
2021/11/05 10:53:41;;;;;;;2.15;1.33;;;19.90;48.80;;;;;;5027546;28;20247;-41
2021/11/05 10:56:14;;;;;;;3.40;1.23;;;19.90;48.90;;;;;;5028936;28;20200;-48
2021/11/05 10:58:56;;;;;;;2.38;1.52;;;19.90;48.80;;;;;;5026757;28;20619;-42
2021/11/05 11:01:29;;;;;;;3.92;1.70;;;19.80;48.90;;;;;;5027430;28;20204;-45
2021/11/05 11:04:01;;;;;;;3.65;1.40;;;19.80;48.80;;;;;;5029797;28;20210;-50
2021/11/05 11:06:33;;;;;;;2.35;1.50;;;19.80;48.90;;;;;;5031587;28;20232;-46
2021/11/05 11:09:07;;;;;;;3.65;1.80;;;19.80;48.90;;;;;;5030316;28;20204;-45
2021/11/05 11:11:39;;;;;;;3.22;1.48;;;19.80;48.90;;;;;;5032696;28;20283;-48
2021/11/05 11:14:16;;;;;;;2.17;1.50;;;19.80;48.90;;;;;;5031690;28;20199;-45
2021/11/05 11:16:47;;;;;;;4.70;1.83;;;19.70;48.80;;;;;;5031492;28;20651;-53
2021/11/05 11:19:19;;;;;;;2.88;1.42;;;19.70;48.80;;;;;;5031938;28;20617;-41
2021/11/05 11:21:57;;;;;;;4.32;1.75;;;19.70;48.80;;;;;;5031992;28;20314;-40
2021/11/05 11:24:43;;;;;;;2.42;1.48;;;19.70;48.90;;;;;;5033644;28;20715;-50
2021/11/05 11:27:15;;;;;;;3.45;1.42;;;19.70;48.90;;;;;;5031867;28;20681;-47
2021/11/05 11:29:48;;;;;;;2.78;1.30;;;19.70;48.80;;;;;;5032174;28;20299;-50
2021/11/05 11:32:19;;;;;;;3.20;1.40;;;19.60;48.90;;;;;;5030270;28;20216;-41
2021/11/05 11:34:51;;;;;;;3.10;1.65;;;19.60;48.90;;;;;;5030435;28;20665;-50
2021/11/05 11:37:22;;;;;;;4.05;1.50;;;19.60;48.90;;;;;;5030447;28;20288;-50
2021/11/05 11:39:53;;;;;;;2.55;1.42;;;19.60;48.90;;;;;;5029831;28;20239;-51
2021/11/05 11:42:23;;;;;;;2.85;1.40;;;19.60;49.00;;;;;;5029656;28;20285;-48
2021/11/05 11:44:56;;;;;;;4.20;1.50;;;19.50;49.00;;;;;;5030709;28;20240;-43
2021/11/05 11:47:26;;;;;;;2.70;1.30;;;19.50;49.00;;;;;;5031253;28;20235;-44
2021/11/05 11:49:57;;;;;;;3.03;1.40;;;19.50;49.00;;;;;;5030997;28;20228;-40
2021/11/05 11:52:35;;;;;;;2.05;1.20;;;19.50;49.00;;;;;;5016238;28;20316;-46
2021/11/05 11:55:19;;;;;;;2.75;1.30;;;19.40;48.90;;;;;;5013807;28;20228;-43
2021/11/05 11:57:50;;;;;;;3.00;1.30;;;19.50;49.00;;;;;;5018899;28;20263;-42
2021/11/05 12:00:25;;;;;;;3.40;1.40;;;19.40;48.90;;;;;;5026046;28;20236;-43
2021/11/05 12:03:05;;;;;;;2.90;1.48;;;19.40;48.90;;;;;;5030268;28;20306;-41
2021/11/05 12:05:41;;;;;;;3.08;1.35;;;19.40;48.90;;;;;;5030999;28;20234;-41
2021/11/05 12:08:42;;;;;;;2.83;1.33;;;19.40;48.90;;;;;;5030919;28;20279;-50
2021/11/05 12:11:30;;;;;;;1.98;1.23;;;19.40;48.90;;;;;;5029397;28;20291;-44
2021/11/05 12:14:13;;;;;;;2.92;1.42;;;19.40;48.90;;;;;;5028531;28;20602;-45
2021/11/05 12:17:02;;;;;;;2.95;1.30;;;19.40;49.00;;;;;;5028282;28;20204;-47
2021/11/05 12:19:40;;;;;;;3.55;1.45;;;19.30;49.00;;;;;;5030199;28;20228;-49
2021/11/05 12:22:15;;;;;;;2.50;1.10;;;19.30;49.00;;;;;;5030078;28;20234;-48
2021/11/05 12:24:47;;;;;;;3.28;1.52;;;19.30;49.00;;;;;;5029356;28;20200;-42
2021/11/05 12:27:27;;;;;;;3.28;1.40;;;19.30;49.00;;;;;;5029292;28;20242;-44
2021/11/05 12:30:13;;;;;;;2.30;1.30;;;19.20;49.00;;;;;;5029535;28;20251;-48
2021/11/05 12:32:45;;;;;;;1.70;1.20;;;19.20;49.00;;;;;;5029637;28;20216;-48
2021/11/05 12:35:25;;;;;;;3.13;1.60;;;19.20;49.00;;;;;;5029823;28;20715;-44
2021/11/05 12:38:07;;;;;;;2.42;1.25;;;19.20;49.00;;;;;;5028358;28;20196;-43
2021/11/05 12:40:42;;;;;;;2.50;1.50;;;19.20;49.00;;;;;;5029788;28;20250;-47
2021/11/05 12:43:46;;;;;;;2.00;1.00;;;19.10;49.00;;;;;;5027904;28;20277;-48
2021/11/05 12:46:25;;;;;;;2.25;1.42;;;19.10;49.00;;;;;;5021519;28;20255;-45
2021/11/05 12:49:02;;;;;;;4.28;1.60;;;19.10;49.00;;;;;;5027268;28;20498;-40
2021/11/05 12:51:42;;;;;;;3.00;1.52;;;19.10;49.00;;;;;;5028564;28;20286;-42
2021/11/05 12:54:19;;;;;;;3.47;1.73;;;19.10;49.10;;;;;;5028841;28;20207;-47
2021/11/05 12:56:54;;;;;;;2.80;1.35;;;19.10;49.10;;;;;;5028501;28;20231;-45
2021/11/05 12:59:27;;;;;;;2.97;1.27;;;19.00;49.00;;;;;;5027945;28;20203;-55
2021/11/05 13:02:00;;;;;;;2.63;1.17;;;19.00;49.10;;;;;;5029388;28;20299;-43
2021/11/05 13:04:39;;;;;;;2.05;1.20;;;19.00;49.10;;;;;;5028568;28;20613;-44
2021/11/05 13:07:10;;;;;;;2.45;1.27;;;19.00;49.10;;;;;;5012321;28;20290;-43
2021/11/05 13:09:48;;;;;;;2.40;1.50;;;18.90;49.00;;;;;;5028092;28;20279;-45
2021/11/05 13:12:20;;;;;;;2.97;1.35;;;18.90;49.00;;;;;;5029317;28;20655;-49